Time;durP1;ratioP1;P1;durP2;ratioP2;P2;SDS_P1;SDS_P2;PMS_P1;PMS_P2;Temp;Humidity;BMP_temperature;BMP_pressure;BME280_temperature;BME280_humidity;BME280_pressure;Samples;Min_cycle;Max_cycle;Signal;HPM_P1;HPM_P2
2022/04/23 00:01:46;;;;;;;;;;;11.20;99.90;;;;;;6152907;23;19935;-79
2022/04/23 00:04:37;;;;;;;;;;;11.20;99.90;;;;;;6177146;23;19924;-80
2022/04/23 00:07:07;;;;;;;;;;;11.20;99.90;;;;;;6177248;23;19921;-80
2022/04/23 00:09:35;;;;;;;;;;;11.20;99.90;;;;;;6117821;23;19924;-78
2022/04/23 00:12:04;;;;;;;;;;;11.40;99.90;;;;;;6151898;23;20419;-79
2022/04/23 00:14:33;;;;;;;;;;;11.20;99.90;;;;;;6118278;23;19925;-79
2022/04/23 00:17:09;;;;;;;;;;;12.20;99.90;;;;;;6140863;23;19924;-80
2022/04/23 00:19:40;;;;;;;;;;;11.30;99.90;;;;;;6142788;23;19955;-80
2022/04/23 00:22:08;;;;;;;;;;;11.30;99.90;;;;;;6094639;23;19925;-79
2022/04/23 00:24:36;;;;;;;;;;;11.30;99.90;;;;;;6142662;23;19927;-80
2022/04/23 00:27:06;;;;;;;;;;;11.20;99.90;;;;;;6170486;23;19931;-79
2022/04/23 00:29:35;;;;;;;;;;;11.20;99.90;;;;;;6142908;23;19924;-79
2022/04/23 00:32:03;;;;;;;;;;;11.20;99.90;;;;;;6143220;23;19925;-79
2022/04/23 00:34:32;;;;;;;;;;;11.30;99.90;;;;;;6155442;23;19924;-79
2022/04/23 00:37:01;;;;;;;;;;;11.30;99.90;;;;;;6146429;23;19931;-81
2022/04/23 00:39:30;;;;;;;;;;;11.30;99.90;;;;;;6180311;23;19935;-79
2022/04/23 00:42:00;;;;;;;;;;;11.40;99.90;;;;;;6153194;23;19927;-81
2022/04/23 00:44:29;;;;;;;;;;;11.30;99.90;;;;;;6178661;23;19920;-80
2022/04/23 00:46:58;;;;;;;;;;;12.10;99.90;;;;;;6178787;23;19925;-80
2022/04/23 00:49:25;;;;;;;;;;;11.30;99.90;;;;;;6118395;23;19935;-79
2022/04/23 00:51:54;;;;;;;;;;;11.30;99.90;;;;;;6152672;23;19925;-80
2022/04/23 00:54:22;;;;;;;;;;;11.30;99.90;;;;;;6171830;23;19924;-81
2022/04/23 00:56:50;;;;;;;;;;;11.30;99.90;;;;;;6116071;23;19947;-78
2022/04/23 00:59:19;;;;;;;;;;;11.30;99.90;;;;;;6140011;23;19940;-81
2022/04/23 01:01:53;;;;;;;;;;;11.40;99.90;;;;;;6141643;23;19931;-78
2022/04/23 01:04:21;;;;;;;;;;;11.30;99.90;;;;;;6114411;23;19927;-82
2022/04/23 01:06:50;;;;;;;;;;;11.30;99.90;;;;;;6140874;23;19925;-80
2022/04/23 01:09:17;;;;;;;;;;;11.30;99.90;;;;;;6148631;23;20403;-83
2022/04/23 01:11:46;;;;;;;;;;;11.30;99.90;;;;;;6113534;23;19929;-80
2022/04/23 01:14:15;;;;;;;;;;;11.30;99.90;;;;;;6091598;23;19924;-79
2022/04/23 01:16:43;;;;;;;;;;;11.30;99.90;;;;;;6149813;23;19921;-79
2022/04/23 01:19:12;;;;;;;;;;;11.30;99.90;;;;;;6125504;23;19921;-80
2022/04/23 01:21:43;;;;;;;;;;;11.30;99.90;;;;;;6090559;23;19932;-79
2022/04/23 01:24:10;;;;;;;;;;;11.30;99.90;;;;;;6139439;23;19931;-79
2022/04/23 01:26:38;;;;;;;;;;;11.30;99.90;;;;;;6122644;23;19931;-79
2022/04/23 01:29:06;;;;;;;;;;;11.20;99.90;;;;;;6140586;23;19921;-80
2022/04/23 01:31:35;;;;;;;;;;;11.30;99.90;;;;;;6139343;23;19921;-80
2022/04/23 01:34:04;;;;;;;;;;;11.30;99.90;;;;;;6114763;23;19925;-79
2022/04/23 01:36:32;;;;;;;;;;;12.00;99.90;;;;;;6123063;23;19921;-79
2022/04/23 01:38:59;;;;;;;;;;;11.30;99.90;;;;;;6113495;23;19921;-79
2022/04/23 01:41:28;;;;;;;;;;;11.30;99.90;;;;;;6117188;23;19928;-79
2022/04/23 01:43:57;;;;;;;;;;;11.30;99.90;;;;;;6124227;23;19921;-81
2022/04/23 01:46:24;;;;;;;;;;;11.30;99.90;;;;;;6114984;23;19931;-81
2022/04/23 01:48:53;;;;;;;;;;;11.40;99.90;;;;;;6093216;23;20473;-79
2022/04/23 01:51:21;;;;;;;;;;;11.30;99.90;;;;;;6126624;23;19928;-79
2022/04/23 01:53:49;;;;;;;;;;;11.30;99.90;;;;;;6114781;23;19924;-80
2022/04/23 01:56:17;;;;;;;;;;;11.30;99.90;;;;;;6093713;23;19921;-79
2022/04/23 01:58:45;;;;;;;;;;;11.30;99.90;;;;;;6091128;23;19929;-79
2022/04/23 02:01:13;;;;;;;;;;;11.30;99.90;;;;;;6145487;23;19921;-80
2022/04/23 02:03:41;;;;;;;;;;;11.40;99.90;;;;;;6091622;23;19927;-80
2022/04/23 02:06:09;;;;;;;;;;;11.30;99.90;;;;;;6115968;23;19924;-79
2022/04/23 02:08:38;;;;;;;;;;;11.40;99.90;;;;;;6152763;23;19931;-80
2022/04/23 02:11:07;;;;;;;;;;;11.30;99.90;;;;;;6141783;23;19927;-79
2022/04/23 02:13:36;;;;;;;;;;;11.40;99.90;;;;;;6091898;23;19936;-79
2022/04/23 02:16:04;;;;;;;;;;;11.30;99.90;;;;;;6142795;23;19921;-80
2022/04/23 02:18:32;;;;;;;;;;;11.40;99.90;;;;;;6125347;23;19927;-80
2022/04/23 02:21:03;;;;;;;;;;;11.30;99.90;;;;;;6114773;23;19927;-82
2022/04/23 02:23:32;;;;;;;;;;;10.70;99.90;;;;;;6116057;23;20332;-79
2022/04/23 02:26:00;;;;;;;;;;;11.30;99.90;;;;;;6090717;23;19921;-78
2022/04/23 02:28:28;;;;;;;;;;;11.40;99.90;;;;;;6090414;23;19963;-78
2022/04/23 02:30:57;;;;;;;;;;;11.60;99.90;;;;;;6091101;23;20187;-78
2022/04/23 02:33:27;;;;;;;;;;;11.30;99.90;;;;;;6124667;23;19940;-79
2022/04/23 02:35:56;;;;;;;;;;;11.30;99.90;;;;;;6142564;23;19939;-79
2022/04/23 02:38:24;;;;;;;;;;;11.40;99.90;;;;;;6115123;23;19920;-80
2022/04/23 02:40:52;;;;;;;;;;;11.30;99.90;;;;;;6114583;23;19921;-79
2022/04/23 02:43:20;;;;;;;;;;;11.40;99.90;;;;;;6117883;23;19921;-83
2022/04/23 02:45:54;;;;;;;;;;;11.40;99.90;;;;;;6151273;23;19920;-79
2022/04/23 02:48:22;;;;;;;;;;;11.40;99.90;;;;;;6090380;23;19928;-80
2022/04/23 02:50:50;;;;;;;;;;;11.40;99.90;;;;;;6150740;23;19927;-80
2022/04/23 02:53:18;;;;;;;;;;;11.40;99.90;;;;;;6091807;23;19925;-79
2022/04/23 02:55:46;;;;;;;;;;;11.40;99.90;;;;;;6092685;23;19935;-79
2022/04/23 02:58:14;;;;;;;;;;;11.40;99.90;;;;;;6150599;23;19936;-79
2022/04/23 03:00:43;;;;;;;;;;;11.40;99.90;;;;;;6150664;23;19921;-79
2022/04/23 03:03:10;;;;;;;;;;;11.40;99.90;;;;;;6124702;23;19937;-79
2022/04/23 03:05:42;;;;;;;;;;;11.60;99.90;;;;;;6125983;23;20251;-81
2022/04/23 03:08:12;;;;;;;;;;;11.40;99.90;;;;;;6115605;23;19921;-83
2022/04/23 03:10:40;;;;;;;;;;;11.40;99.90;;;;;;6122643;23;19927;-79
2022/04/23 03:13:09;;;;;;;;;;;11.40;99.90;;;;;;6092275;23;19921;-80
2022/04/23 03:15:37;;;;;;;;;;;11.50;99.90;;;;;;6091836;23;19997;-79
2022/04/23 03:18:09;;;;;;;;;;;11.50;99.90;;;;;;6150011;23;19921;-79
2022/04/23 03:20:38;;;;;;;;;;;11.40;99.90;;;;;;6139422;23;19921;-79
2022/04/23 03:23:07;;;;;;;;;;;11.40;99.90;;;;;;6151418;23;19924;-80
2022/04/23 03:25:38;;;;;;;;;;;11.30;99.90;;;;;;6117251;23;19931;-80
2022/04/23 03:28:06;;;;;;;;;;;11.30;99.90;;;;;;6150169;23;19931;-79
2022/04/23 03:30:35;;;;;;;;;;;11.40;99.90;;;;;;6116787;23;20350;-80
2022/04/23 03:33:04;;;;;;;;;;;11.30;99.90;;;;;;6143489;23;19921;-80
2022/04/23 03:35:35;;;;;;;;;;;11.30;99.90;;;;;;6114942;23;19921;-79
2022/04/23 03:38:06;;;;;;;;;;;11.40;99.90;;;;;;6115166;23;19925;-80
2022/04/23 03:40:34;;;;;;;;;;;11.40;99.90;;;;;;6150735;23;19921;-79
2022/04/23 03:43:03;;;;;;;;;;;11.40;99.90;;;;;;6115384;23;19921;-83
2022/04/23 03:45:33;;;;;;;;;;;11.40;99.90;;;;;;6092176;23;20348;-79
2022/04/23 03:48:04;;;;;;;;;;;11.30;99.90;;;;;;6143766;23;19931;-78
2022/04/23 03:50:35;;;;;;;;;;;11.30;99.90;;;;;;6120192;23;19921;-80
2022/04/23 03:53:03;;;;;;;;;;;11.40;99.90;;;;;;6091260;23;19927;-79
2022/04/23 03:55:31;;;;;;;;;;;11.30;99.90;;;;;;6114435;23;20107;-79
2022/04/23 03:57:59;;;;;;;;;;;11.30;99.90;;;;;;6150307;23;19933;-80
2022/04/23 04:00:28;;;;;;;;;;;11.40;99.90;;;;;;6124831;23;19925;-80
2022/04/23 04:02:57;;;;;;;;;;;11.40;99.90;;;;;;6112410;23;19925;-80
2022/04/23 04:05:28;;;;;;;;;;;11.40;99.90;;;;;;6146885;23;19921;-83
2022/04/23 04:07:59;;;;;;;;;;;11.40;99.90;;;;;;6088943;23;19925;-82
2022/04/23 04:10:28;;;;;;;;;;;11.40;99.90;;;;;;6114143;23;19932;-80
2022/04/23 04:12:56;;;;;;;;;;;11.40;99.90;;;;;;6091777;23;19921;-81
2022/04/23 04:15:24;;;;;;;;;;;11.40;99.90;;;;;;6140633;23;19932;-81
2022/04/23 04:17:52;;;;;;;;;;;11.40;99.90;;;;;;6139540;23;19917;-83
2022/04/23 04:20:22;;;;;;;;;;;11.40;99.90;;;;;;6089958;23;19921;-79
2022/04/23 04:22:51;;;;;;;;;;;11.40;99.90;;;;;;6117116;23;20340;-81
2022/04/23 04:25:19;;;;;;;;;;;11.50;99.90;;;;;;6115544;23;20269;-82
2022/04/23 04:27:47;;;;;;;;;;;11.40;99.90;;;;;;6123853;23;20364;-87
2022/04/23 04:30:15;;;;;;;;;;;11.50;99.90;;;;;;6122707;23;19932;-81
2022/04/23 04:32:49;;;;;;;;;;;11.50;99.90;;;;;;6137539;23;19932;-81
2022/04/23 04:35:17;;;;;;;;;;;11.40;99.90;;;;;;6110833;23;19935;-80
2022/04/23 04:37:45;;;;;;;;;;;11.40;99.90;;;;;;6113700;23;19974;-79
2022/04/23 04:40:13;;;;;;;;;;;11.50;99.90;;;;;;6121561;23;19926;-79
2022/04/23 04:42:41;;;;;;;;;;;11.50;99.90;;;;;;6091119;23;19921;-80
2022/04/23 04:45:10;;;;;;;;;;;11.50;99.90;;;;;;6091544;23;19925;-80
2022/04/23 04:47:42;;;;;;;;;;;11.50;99.90;;;;;;6112837;23;19921;-79
2022/04/23 04:50:10;;;;;;;;;;;11.50;99.90;;;;;;6113572;23;19921;-81
2022/04/23 04:52:40;;;;;;;;;;;11.50;99.90;;;;;;6122580;23;19925;-80
2022/04/23 04:55:10;;;;;;;;;;;11.50;99.90;;;;;;6119351;23;19925;-81
2022/04/23 04:57:38;;;;;;;;;;;11.50;99.90;;;;;;6087233;23;19925;-80
2022/04/23 05:00:07;;;;;;;;;;;11.50;99.90;;;;;;6110916;23;19931;-79
2022/04/23 05:02:35;;;;;;;;;;;11.50;99.90;;;;;;6111508;23;19928;-80
2022/04/23 05:05:03;;;;;;;;;;;11.50;99.90;;;;;;6122609;23;19928;-81
2022/04/23 05:07:31;;;;;;;;;;;11.60;99.90;;;;;;6121102;23;19927;-79
2022/04/23 05:10:03;;;;;;;;;;;11.50;99.90;;;;;;6124891;23;19921;-79
2022/04/23 05:12:33;;;;;;;;;;;11.50;99.90;;;;;;6112172;23;19921;-80
2022/04/23 05:15:05;;;;;;;;;;;11.50;99.90;;;;;;6114116;23;19927;-84
2022/04/23 05:17:39;;;;;;;;;;;11.50;99.90;;;;;;6122073;23;19921;-81
2022/04/23 05:20:10;;;;;;;;;;;11.50;99.90;;;;;;6112243;23;19925;-81
2022/04/23 05:22:39;;;;;;;;;;;11.60;99.90;;;;;;6116121;23;20693;-81
2022/04/23 05:25:08;;;;;;;;;;;11.60;99.90;;;;;;6122607;23;19931;-82
2022/04/23 05:27:38;;;;;;;;;;;11.60;99.90;;;;;;6122398;23;19955;-82
2022/04/23 05:30:07;;;;;;;;;;;11.50;99.90;;;;;;6111440;23;19925;-80
2022/04/23 05:32:35;;;;;;;;;;;11.60;99.90;;;;;;6112577;23;19925;-83
2022/04/23 05:35:08;;;;;;;;;;;11.60;99.90;;;;;;6087982;23;19925;-82
2022/04/23 05:37:39;;;;;;;;;;;11.60;99.90;;;;;;6123329;23;19925;-82
2022/04/23 05:40:09;;;;;;;;;;;11.60;99.90;;;;;;6124217;23;20271;-80
2022/04/23 05:42:38;;;;;;;;;;;11.70;99.90;;;;;;6120818;23;20151;-80
2022/04/23 05:45:06;;;;;;;;;;;11.70;99.90;;;;;;6114655;23;19921;-79
2022/04/23 05:47:35;;;;;;;;;;;11.70;99.90;;;;;;6119813;23;19932;-80
2022/04/23 05:50:03;;;;;;;;;;;11.70;99.90;;;;;;6086754;23;19922;-81
2022/04/23 05:52:31;;;;;;;;;;;11.70;99.90;;;;;;6086496;23;19921;-79
2022/04/23 05:54:59;;;;;;;;;;;11.50;99.90;;;;;;6117210;23;19931;-79
2022/04/23 05:57:27;;;;;;;;;;;11.80;99.90;;;;;;6107636;23;19925;-79
2022/04/23 05:59:56;;;;;;;;;;;11.70;99.90;;;;;;6119541;23;20220;-80
2022/04/23 06:02:25;;;;;;;;;;;11.70;99.90;;;;;;6104809;23;19941;-79
2022/04/23 06:04:54;;;;;;;;;;;11.70;99.90;;;;;;6124934;23;19925;-79
2022/04/23 06:07:21;;;;;;;;;;;11.80;99.90;;;;;;6124102;23;19921;-80
2022/04/23 06:09:50;;;;;;;;;;;11.00;99.90;;;;;;6149941;23;19947;-79
2022/04/23 06:12:18;;;;;;;;;;;11.80;99.90;;;;;;6116404;23;19929;-79
2022/04/23 06:14:47;;;;;;;;;;;11.80;99.90;;;;;;6140842;23;19927;-82
2022/04/23 06:17:15;;;;;;;;;;;11.80;99.90;;;;;;6116572;23;20229;-81
2022/04/23 06:19:43;;;;;;;;;;;11.80;99.90;;;;;;6150411;23;19921;-79
2022/04/23 06:22:11;;;;;;;;;;;11.80;99.90;;;;;;6090816;23;19931;-79
2022/04/23 06:24:45;;;;;;;;;;;11.90;99.90;;;;;;6091430;23;20513;-81
2022/04/23 06:27:13;;;;;;;;;;;11.80;99.90;;;;;;6144042;23;19921;-81
2022/04/23 06:29:45;;;;;;;;;;;11.90;99.90;;;;;;6126033;23;19925;-81
2022/04/23 06:32:14;;;;;;;;;;;11.80;99.90;;;;;;6144377;23;19927;-79
2022/04/23 06:34:44;;;;;;;;;;;12.20;99.90;;;;;;6095346;23;19928;-82
2022/04/23 06:37:13;;;;;;;;;;;11.90;99.90;;;;;;6128868;23;19927;-81
2022/04/23 06:39:43;;;;;;;;;;;11.90;99.90;;;;;;6153588;23;19921;-80
2022/04/23 06:42:14;;;;;;;;;;;11.80;99.90;;;;;;6114799;23;19928;-79
2022/04/23 06:44:45;;;;;;;;;;;11.80;99.90;;;;;;6139310;23;19932;-80
2022/04/23 06:47:14;;;;;;;;;;;11.80;99.90;;;;;;6114294;23;20236;-82
2022/04/23 06:49:42;;;;;;;;;;;11.10;99.90;;;;;;6092510;23;19920;-80
2022/04/23 06:52:11;;;;;;;;;;;12.00;99.90;;;;;;6127087;23;19927;-78
2022/04/23 06:54:40;;;;;;;;;;;11.80;99.90;;;;;;6123993;23;19928;-79
2022/04/23 06:57:09;;;;;;;;;;;11.80;99.90;;;;;;6115803;23;19935;-79
2022/04/23 06:59:37;;;;;;;;;;;11.80;99.90;;;;;;6114806;23;20001;-79
2022/04/23 07:02:05;;;;;;;;;;;11.80;99.90;;;;;;6090260;23;19933;-79
2022/04/23 07:04:35;;;;;;;;;;;11.80;99.90;;;;;;6139893;23;19925;-79
2022/04/23 07:07:05;;;;;;;;;;;11.90;99.90;;;;;;6126438;23;19921;-80
2022/04/23 07:09:35;;;;;;;;;;;10.70;99.90;;;;;;6117003;23;19931;-79
2022/04/23 07:12:03;;;;;;;;;;;12.00;99.90;;;;;;6114680;23;19924;-83
2022/04/23 07:14:33;;;;;;;;;;;11.90;99.90;;;;;;6124200;23;19925;-80
2022/04/23 07:17:07;;;;;;;;;;;11.90;99.90;;;;;;6115810;23;19921;-81
2022/04/23 07:19:39;;;;;;;;;;;12.00;99.90;;;;;;6148517;23;19925;-80
2022/04/23 07:22:09;;;;;;;;;;;12.00;99.90;;;;;;6114971;23;19925;-80
2022/04/23 07:24:37;;;;;;;;;;;12.00;99.90;;;;;;6149529;23;19921;-79
2022/04/23 07:27:07;;;;;;;;;;;12.10;99.90;;;;;;6093231;23;19931;-79
2022/04/23 07:29:35;;;;;;;;;;;12.10;99.90;;;;;;6101892;23;20482;-82
2022/04/23 07:32:04;;;;;;;;;;;12.30;99.90;;;;;;6116615;23;20259;-80
2022/04/23 07:37:34;;;;;;;;;;;12.50;99.90;;;;;;6141448;23;19925;-83
2022/04/23 07:40:10;;;;;;;;;;;12.50;99.90;;;;;;6115246;23;19927;-84
2022/04/23 07:42:39;;;;;;;;;;;12.60;99.90;;;;;;6117529;23;20242;-80
2022/04/23 07:45:10;;;;;;;;;;;12.70;99.90;;;;;;6120186;23;19925;-80
2022/04/23 07:47:42;;;;;;;;;;;12.90;99.90;;;;;;6138251;23;19929;-80
2022/04/23 07:50:11;;;;;;;;;;;13.00;99.90;;;;;;6116408;23;19936;-82
2022/04/23 07:52:39;;;;;;;;;;;13.10;99.90;;;;;;6149545;23;20702;-79
2022/04/23 07:55:09;;;;;;;;;;;13.20;99.90;;;;;;6142192;23;19929;-80
2022/04/23 07:57:47;;;;;;;;;;;13.30;99.90;;;;;;6112121;23;19925;-80
2022/04/23 08:00:17;;;;;;;;;;;13.30;99.90;;;;;;6137741;23;19924;-80
2022/04/23 08:02:47;;;;;;;;;;;13.40;99.90;;;;;;6113674;23;19920;-81
2022/04/23 08:05:17;;;;;;;;;;;13.40;99.90;;;;;;6143264;23;20188;-81
2022/04/23 08:07:45;;;;;;;;;;;13.50;99.90;;;;;;6113486;23;20229;-80
2022/04/23 08:10:15;;;;;;;;;;;13.50;99.90;;;;;;6090054;23;19925;-80
2022/04/23 08:12:43;;;;;;;;;;;13.60;99.90;;;;;;6124693;23;20036;-80
2022/04/23 08:15:12;;;;;;;;;;;13.50;99.90;;;;;;6115172;23;19920;-79
2022/04/23 08:17:39;;;;;;;;;;;13.60;99.90;;;;;;6115689;23;20358;-81
2022/04/23 08:20:11;;;;;;;;;;;13.60;99.90;;;;;;6118848;23;19921;-79
2022/04/23 08:22:38;;;;;;;;;;;12.00;99.90;;;;;;6093016;23;19929;-80
2022/04/23 08:25:07;;;;;;;;;;;13.60;99.90;;;;;;6140799;23;19921;-79
2022/04/23 08:27:53;;;;;;;;;;;13.50;99.90;;;;;;6113370;23;20202;-80
2022/04/23 08:30:36;;;;;;;;;;;13.80;99.90;;;;;;6114180;23;19921;-80
2022/04/23 08:33:06;;;;;;;;;;;13.60;99.90;;;;;;6140550;23;19921;-80
2022/04/23 08:35:35;;;;;;;;;;;13.70;99.90;;;;;;6145875;23;19924;-79
2022/04/23 08:38:06;;;;;;;;;;;14.20;99.90;;;;;;6147641;23;19931;-80
2022/04/23 08:40:39;;;;;;;;;;;13.80;99.90;;;;;;6099158;23;19924;-80
2022/04/23 08:43:11;;;;;;;;;;;13.10;99.90;;;;;;6140241;23;19928;-79
2022/04/23 08:45:39;;;;;;;;;;;13.90;99.90;;;;;;6148986;23;19935;-80
2022/04/23 08:48:10;;;;;;;;;;;13.90;99.90;;;;;;6123233;23;19931;-84
2022/04/23 08:50:39;;;;;;;;;;;13.90;99.90;;;;;;6137468;23;19920;-79
2022/04/23 08:53:17;;;;;;;;;;;13.90;99.90;;;;;;6140113;23;19921;-78
2022/04/23 08:55:55;;;;;;;;;;;14.00;99.90;;;;;;6113407;23;19931;-79
2022/04/23 08:58:24;;;;;;;;;;;14.20;99.90;;;;;;6145688;23;19921;-79
2022/04/23 09:03:28;;;;;;;;;;;14.00;99.90;;;;;;4947156;27;4033088;-80
2022/04/23 09:05:56;;;;;;;;;;;14.00;99.90;;;;;;5102599;28;19924;-80
2022/04/23 09:08:29;;;;;;;;;;;14.00;99.90;;;;;;5055615;28;19935;-81
2022/04/23 09:11:00;;;;;;;;;;;14.10;99.90;;;;;;5065306;28;19935;-82
2022/04/23 09:13:32;;;;;;;;;;;14.20;99.90;;;;;;5064248;28;19935;-80
2022/04/23 09:24:47;;;;;;;;;;;14.30;99.80;;;;;;5059946;28;19925;-80
2022/04/23 09:27:15;;;;;;;;;;;14.30;99.80;;;;;;5060742;28;19939;-81
2022/04/23 09:29:58;;;;;;;;;;;14.40;99.90;;;;;;5061946;28;19933;-80
2022/04/23 09:32:27;;;;;;;;;;;14.40;99.80;;;;;;5058771;28;19939;-81
2022/04/23 09:35:06;;;;;;;;;;;14.50;99.90;;;;;;5043298;28;19929;-80
2022/04/23 09:40:27;;;;;;;;;;;14.50;99.80;;;;;;5059632;28;19924;-80
2022/04/23 09:43:00;;;;;;;;;;;15.00;99.80;;;;;;5078348;28;19931;-80
2022/04/23 09:45:32;;;;;;;;;;;14.60;99.50;;;;;;5077710;28;19929;-81
2022/04/23 09:48:03;;;;;;;;;;;14.50;99.60;;;;;;5064852;28;20008;-80
2022/04/23 09:50:36;;;;;;;;;;;13.40;99.30;;;;;;5046196;28;19929;-80
2022/04/23 09:53:08;;;;;;;;;;;14.70;99.00;;;;;;5062867;28;19920;-81
2022/04/23 09:56:07;;;;;;;;;;;14.60;99.10;;;;;;5042449;28;20105;-80
2022/04/23 09:58:44;;;;;;;;;;;14.80;98.80;;;;;;5041250;28;19937;-81
2022/04/23 10:01:13;;;;;;;;;;;14.80;99.00;;;;;;5040188;28;19925;-80
2022/04/23 10:03:46;;;;;;;;;;;14.80;98.90;;;;;;5057760;28;19928;-80
2022/04/23 10:06:23;;;;;;;;;;;14.90;99.10;;;;;;5056783;28;19933;-80
2022/04/23 10:08:59;;;;;;;;;;;15.10;98.90;;;;;;5039298;28;19933;-80
2022/04/23 10:11:29;;;;;;;;;;;15.20;98.50;;;;;;5043371;28;19925;-80
2022/04/23 10:13:59;;;;;;;;;;;15.30;98.50;;;;;;5025615;28;19933;-80
2022/04/23 10:16:32;;;;;;;;;;;15.30;98.50;;;;;;5014738;28;19934;-83
2022/04/23 10:19:01;;;;;;;;;;;15.50;98.30;;;;;;5016483;28;19996;-80
2022/04/23 10:21:32;;;;;;;;;;;15.30;98.10;;;;;;5038275;28;21035;-81
2022/04/23 10:24:13;;;;;;;;;;;15.40;97.70;;;;;;5041731;28;19929;-81
2022/04/23 10:27:10;;;;;;;;;;;15.40;97.90;;;;;;5034911;28;19929;-80
2022/04/23 10:29:38;;;;;;;;;;;15.60;97.90;;;;;;5010662;28;19936;-83
2022/04/23 10:32:22;;;;;;;;;;;15.80;98.10;;;;;;5044412;28;19925;-82
2022/04/23 10:34:53;;;;;;;;;;;16.10;97.20;;;;;;5040114;28;20270;-82
2022/04/23 10:37:28;;;;;;;;;;;16.00;97.10;;;;;;5025826;28;19929;-80
2022/04/23 10:40:22;;;;;;;;;;;16.10;97.20;;;;;;5014533;28;19913;-81
2022/04/23 10:43:12;;;;;;;;;;;16.10;96.60;;;;;;5046708;28;19929;-81
2022/04/23 10:45:42;;;;;;;;;;;16.20;96.50;;;;;;5048704;28;19921;-81
2022/04/23 10:48:19;;;;;;;;;;;16.10;96.40;;;;;;5015287;28;19929;-82
2022/04/23 10:50:59;;;;;;;;;;;16.10;96.20;;;;;;5042493;28;19940;-82
2022/04/23 10:53:39;;;;;;;;;;;16.10;96.20;;;;;;5043317;28;19934;-81
2022/04/23 10:56:10;;;;;;;;;;;16.10;95.80;;;;;;5028559;28;19932;-83
2022/04/23 10:58:40;;;;;;;;;;;16.10;96.00;;;;;;5025577;28;19929;-83
2022/04/23 11:01:23;;;;;;;;;;;16.00;96.20;;;;;;5039504;28;20228;-79
2022/04/23 11:03:57;;;;;;;;;;;16.10;96.20;;;;;;5026729;28;19921;-82
2022/04/23 11:12:38;;;;;;;;;;;16.30;95.00;;;;;;5028259;28;19933;-82
2022/04/23 11:15:14;;;;;;;;;;;15.90;94.50;;;;;;5028412;28;19933;-81
2022/04/23 11:17:49;;;;;;;;;;;16.50;94.60;;;;;;5013081;28;19929;-81
2022/04/23 11:20:36;;;;;;;;;;;16.50;94.40;;;;;;5042389;28;19925;-83
2022/04/23 11:23:13;;;;;;;;;;;16.10;94.20;;;;;;5046427;28;19936;-81
2022/04/23 11:25:55;;;;;;;;;;;16.60;94.10;;;;;;5042545;28;19933;-79
2022/04/23 11:28:24;;;;;;;;;;;16.70;94.60;;;;;;5023927;28;19948;-83
2022/04/23 11:30:54;;;;;;;;;;;16.90;95.00;;;;;;5041086;28;19929;-81
2022/04/23 11:33:23;;;;;;;;;;;17.20;94.20;;;;;;5024616;28;19933;-81
2022/04/23 11:35:56;;;;;;;;;;;17.40;93.70;;;;;;5041004;28;19929;-82
2022/04/23 11:38:26;;;;;;;;;;;17.60;93.60;;;;;;5026149;28;20005;-82
2022/04/23 11:40:54;;;;;;;;;;;17.10;93.10;;;;;;5026982;28;20768;-82
2022/04/23 11:43:33;;;;;;;;;;;18.00;92.80;;;;;;5028306;28;19936;-82
2022/04/23 11:46:06;;;;;;;;;;;18.00;92.80;;;;;;5027113;28;19929;-82
2022/04/23 11:48:45;;;;;;;;;;;18.20;92.50;;;;;;5027530;28;19941;-79
2022/04/23 11:51:13;;;;;;;;;;;17.90;92.20;;;;;;5041829;28;20426;-80
2022/04/23 11:53:49;;;;;;;;;;;17.80;92.60;;;;;;5012033;28;19925;-82
2022/04/23 11:56:23;;;;;;;;;;;17.60;92.50;;;;;;5046094;28;19929;-85
2022/04/23 11:58:52;;;;;;;;;;;16.20;92.30;;;;;;5044877;28;19925;-82
2022/04/23 12:01:24;;;;;;;;;;;17.10;92.70;;;;;;5030677;28;19929;-81
2022/04/23 12:03:58;;;;;;;;;;;17.40;92.60;;;;;;5026904;28;19941;-80
2022/04/23 12:06:26;;;;;;;;;;;17.30;92.10;;;;;;5008824;28;19926;-81
2022/04/23 12:09:05;;;;;;;;;;;17.40;92.90;;;;;;5039971;28;19933;-81
2022/04/23 12:11:36;;;;;;;;;;;17.50;92.40;;;;;;5011026;28;19933;-81
2022/04/23 12:14:06;;;;;;;;;;;17.60;91.90;;;;;;5041486;28;19929;-80
2022/04/23 12:16:43;;;;;;;;;;;17.60;91.80;;;;;;5025628;23;19925;-89
2022/04/23 12:19:14;;;;;;;;;;;17.60;91.70;;;;;;4688379;28;9999992;-86
2022/04/23 12:21:57;;;;;;;;;;;17.60;91.00;;;;;;5032517;28;19940;-87
2022/04/23 12:24:34;;;;;;;;;;;17.50;91.00;;;;;;5034701;28;19925;-86
2022/04/23 12:27:06;;;;;;;;;;;17.60;91.10;;;;;;5035283;28;19925;-89
2022/04/23 12:41:40;;;;;;;;;;;18.10;90.40;;;;;;4975385;28;19921;-87
2022/04/23 12:44:18;;;;;;;;;;;18.20;90.50;;;;;;5025154;28;19944;-87
2022/04/23 12:47:00;;;;;;;;;;;18.10;90.10;;;;;;5040276;28;19939;-87
2022/04/23 12:49:52;;;;;;;;;;;18.10;90.30;;;;;;5052717;28;19936;-86
2022/04/23 12:52:27;;;;;;;;;;;18.20;90.70;;;;;;5040685;28;19936;-85
2022/04/23 12:55:15;;;;;;;;;;;18.00;90.10;;;;;;5035352;28;19929;-87
2022/04/23 12:58:21;;;;;;;;;;;17.90;90.50;;;;;;5034809;28;19940;-89
2022/04/23 13:01:13;;;;;;;;;;;17.20;90.20;;;;;;5024970;28;19929;-86
2022/04/23 13:03:45;;;;;;;;;;;17.70;90.50;;;;;;5028185;28;19925;-89
2022/04/23 13:09:06;;;;;;;;;;;17.70;90.80;;;;;;5035874;28;19940;-86
2022/04/23 13:11:34;;;;;;;;;;;17.80;90.70;;;;;;4999110;28;19929;-85
2022/04/23 13:14:09;;;;;;;;;;;17.90;90.90;;;;;;5041289;28;19932;-85
2022/04/23 13:16:39;;;;;;;;;;;18.00;90.50;;;;;;5023451;28;19926;-88
2022/04/23 13:19:14;;;;;;;;;;;17.80;90.70;;;;;;5034513;28;19932;-87
2022/04/23 13:21:43;;;;;;;;;;;17.70;90.80;;;;;;5033221;28;19949;-87
2022/04/23 13:24:12;;;;;;;;;;;17.80;91.00;;;;;;5040832;28;19936;-88
2022/04/23 13:26:42;;;;;;;;;;;17.50;91.10;;;;;;5037153;28;19925;-87
2022/04/23 13:29:11;;;;;;;;;;;17.30;91.00;;;;;;4999513;28;19929;-88
2022/04/23 13:31:39;;;;;;;;;;;17.10;91.40;;;;;;5020193;28;19939;-89
2022/04/23 13:34:08;;;;;;;;;;;17.10;91.90;;;;;;5038176;28;19934;-88
2022/04/23 13:36:37;;;;;;;;;;;17.70;91.70;;;;;;5000964;28;19933;-87
2022/04/23 13:39:20;;;;;;;;;;;17.60;91.40;;;;;;5034246;28;20327;-88
2022/04/23 13:41:49;;;;;;;;;;;17.80;91.10;;;;;;4995904;28;19925;-86
2022/04/23 13:44:17;;;;;;;;;;;16.50;90.40;;;;;;5015521;28;19924;-88
2022/04/23 13:46:49;;;;;;;;;;;18.00;91.00;;;;;;5033482;28;20273;-89
2022/04/23 13:49:22;;;;;;;;;;;18.20;91.00;;;;;;5013752;28;19940;-89
2022/04/23 13:51:55;;;;;;;;;;;18.30;90.40;;;;;;5035559;28;19933;-87
2022/04/23 13:54:22;;;;;;;;;;;18.40;90.60;;;;;;5050771;28;19917;-88
2022/04/23 13:57:30;;;;;;;;;;;18.60;90.50;;;;;;5031729;28;19929;-88
2022/04/23 14:00:00;;;;;;;;;;;17.70;90.10;;;;;;5030487;28;19929;-89
2022/04/23 14:10:59;;;;;;;;;;;18.60;90.50;;;;;;5024833;28;19925;-89
2022/04/23 14:13:27;;;;;;;;;;;18.90;90.10;;;;;;5040744;28;19940;-89
2022/04/23 14:15:55;;;;;;;;;;;19.20;89.30;;;;;;5038778;28;19933;-89
2022/04/23 14:18:28;;;;;;;;;;;19.80;88.50;;;;;;5043208;28;19932;-90
2022/04/23 14:20:56;;;;;;;;;;;19.30;88.10;;;;;;5037530;28;19925;-88
2022/04/23 14:23:24;;;;;;;;;;;19.50;87.60;;;;;;5040665;28;19963;-91
2022/04/23 14:25:52;;;;;;;;;;;19.50;87.90;;;;;;5050158;28;19933;-88
2022/04/23 14:28:28;;;;;;;;;;;19.30;86.50;;;;;;5028974;28;19926;-90
2022/04/23 14:30:56;;;;;;;;;;;19.10;87.30;;;;;;5027662;28;19956;-89
2022/04/23 14:33:25;;;;;;;;;;;19.00;87.40;;;;;;5045593;28;19929;-89
2022/04/23 14:35:53;;;;;;;;;;;19.00;87.30;;;;;;5027554;28;19948;-89
2022/04/23 14:38:26;;;;;;;;;;;19.10;86.30;;;;;;5034127;28;19914;-86
2022/04/23 14:40:54;;;;;;;;;;;19.20;86.60;;;;;;5024237;28;19926;-87
2022/04/23 14:43:22;;;;;;;;;;;19.30;86.30;;;;;;5040257;28;19933;-87
2022/04/23 14:45:53;;;;;;;;;;;19.30;85.80;;;;;;5004734;28;19931;-89
2022/04/23 14:48:27;;;;;;;;;;;19.40;85.80;;;;;;5044503;28;19940;-88
2022/04/23 14:53:52;;;;;;;;;;;19.40;85.70;;;;;;5029784;28;19941;-87
2022/04/23 14:56:28;;;;;;;;;;;19.20;86.20;;;;;;5034270;28;19932;-89
2022/04/23 14:59:04;;;;;;;;;;;18.90;86.60;;;;;;5016266;28;20780;-89
2022/04/23 15:01:36;;;;;;;;;;;18.60;87.30;;;;;;5008088;28;19929;-89
2022/04/23 15:04:10;;;;;;;;;;;18.30;87.70;;;;;;5016784;28;19936;-88
2022/04/23 15:06:38;;;;;;;;;;;18.20;89.00;;;;;;5033927;28;19945;-89
2022/04/23 15:09:08;;;;;;;;;;;18.10;89.20;;;;;;5038416;28;20329;-89
2022/04/23 15:11:37;;;;;;;;;;;17.80;89.60;;;;;;5026009;28;19930;-88
2022/04/23 15:14:05;;;;;;;;;;;17.60;90.10;;;;;;5048664;28;19936;-85
2022/04/23 15:16:35;;;;;;;;;;;17.60;90.30;;;;;;5047228;28;19925;-89
2022/04/23 15:19:03;;;;;;;;;;;17.50;90.30;;;;;;5053957;28;19936;-89
2022/04/23 15:21:31;;;;;;;;;;;17.50;90.60;;;;;;5038313;28;19923;-87
2022/04/23 15:24:00;;;;;;;;;;;17.60;90.40;;;;;;5027321;28;19925;-89
2022/04/23 15:26:32;;;;;;;;;;;17.60;90.30;;;;;;5040400;28;19925;-90
2022/04/23 15:29:04;;;;;;;;;;;17.50;90.60;;;;;;5041051;28;19935;-88